Time;durP1;ratioP1;P1;durP2;ratioP2;P2;SDS_P1;SDS_P2;PMS_P1;PMS_P2;Temp;Humidity;BMP_temperature;BMP_pressure;BME280_temperature;BME280_humidity;BME280_pressure;Samples;Min_cycle;Max_cycle;Signal;HPM_P1;HPM_P2
2021/08/09 00:00:08;;;;;;;3.52;2.15;;;;;;;16.31;100.00;100746.72;1685975;85;21098;-88
2021/08/09 00:02:38;;;;;;;2.40;1.50;;;;;;;16.28;100.00;100747.91;1692709;82;20992;-88
2021/08/09 00:05:07;;;;;;;4.00;2.37;;;;;;;16.27;100.00;100746.27;1703428;84;21022;-89
2021/08/09 00:07:34;;;;;;;2.95;2.20;;;;;;;16.26;100.00;100741.89;1702150;84;21410;-88
2021/08/09 00:10:00;;;;;;;3.27;2.10;;;;;;;16.26;100.00;100744.64;1701933;84;21030;-92
2021/08/09 00:12:29;;;;;;;4.58;2.58;;;;;;;16.25;100.00;100739.70;1701793;83;21086;-93
2021/08/09 00:14:57;;;;;;;3.30;2.00;;;;;;;16.26;100.00;100735.80;1703892;84;21593;-89
2021/08/09 00:17:23;;;;;;;2.20;1.85;;;;;;;16.26;100.00;100737.75;1703352;84;21279;-89
2021/08/09 00:19:50;;;;;;;3.75;2.20;;;;;;;16.24;100.00;100737.23;1703344;84;21398;-91
2021/08/09 00:22:17;;;;;;;2.25;1.60;;;;;;;16.22;100.00;100736.19;1702489;84;21521;-89
2021/08/09 00:24:44;;;;;;;3.80;2.62;;;;;;;16.20;100.00;100734.30;1675040;85;21081;-93
2021/08/09 00:27:11;;;;;;;3.77;2.50;;;;;;;16.17;100.00;100728.58;1675756;85;21097;-92
2021/08/09 00:29:39;;;;;;;3.75;2.50;;;;;;;16.14;100.00;100730.02;1682383;82;21478;-92
2021/08/09 00:32:07;;;;;;;5.08;3.33;;;;;;;16.12;100.00;100722.08;1710226;83;21497;-91
2021/08/09 00:34:34;;;;;;;4.17;2.37;;;;;;;16.11;100.00;100717.66;1694814;83;21008;-90
2021/08/09 00:37:01;;;;;;;5.22;2.70;;;;;;;16.12;100.00;100712.96;1666709;83;21092;-88
2021/08/09 00:39:29;;;;;;;3.08;2.42;;;;;;;16.11;100.00;100725.13;1746092;82;21029;-88
2021/08/09 00:41:56;;;;;;;3.42;2.00;;;;;;;16.09;100.00;100721.86;1744991;82;21092;-89
2021/08/09 00:44:22;;;;;;;3.72;2.58;;;;;;;16.06;100.00;100723.30;1698378;82;21034;-88
2021/08/09 00:46:50;;;;;;;4.75;2.33;;;;;;;16.04;100.00;100731.05;1701322;82;22072;-88
2021/08/09 00:49:17;;;;;;;3.47;2.67;;;;;;;16.02;100.00;100732.48;1675486;84;21604;-89
2021/08/09 00:51:44;;;;;;;3.12;2.05;;;;;;;16.01;100.00;100733.05;1706451;84;21051;-89
2021/08/09 00:54:12;;;;;;;4.00;2.87;;;;;;;16.02;100.00;100732.48;1670475;84;21058;-89
2021/08/09 00:56:41;;;;;;;3.90;2.65;;;;;;;16.02;100.00;100733.86;1709523;84;21053;-88
2021/08/09 00:59:07;;;;;;;3.30;2.40;;;;;;;16.00;100.00;100730.59;1680850;84;21507;-90
2021/08/09 01:01:34;;;;;;;4.37;2.60;;;;;;;15.97;100.00;100724.33;1708600;84;21124;-89
2021/08/09 01:04:03;;;;;;;5.53;2.52;;;;;;;15.96;100.00;100724.09;1691299;83;21058;-89
2021/08/09 01:06:31;;;;;;;7.20;2.65;;;;;;;15.93;100.00;100722.77;1680573;85;20926;-92
2021/08/09 01:09:17;;;;;;;2.47;2.00;;;;;;;15.90;100.00;100721.45;1691393;82;21583;-93
2021/08/09 01:12:17;;;;;;;3.83;2.37;;;;;;;15.89;100.00;100715.66;1708340;84;21045;-92
2021/08/09 01:15:00;;;;;;;2.92;2.08;;;;;;;15.87;100.00;100709.67;1699366;83;21109;-91
2021/08/09 01:17:35;;;;;;;3.50;2.22;;;;;;;15.86;100.00;100708.59;1696179;84;21097;-92
2021/08/09 01:20:31;;;;;;;3.45;2.08;;;;;;;15.83;100.00;100701.76;1703738;84;20988;-87
2021/08/09 01:23:27;;;;;;;3.47;2.40;;;;;;;15.82;100.00;100707.00;1694457;84;21120;-92
2021/08/09 01:25:58;;;;;;;4.35;2.40;;;;;;;15.79;100.00;100709.00;1703366;82;21062;-89
2021/08/09 01:28:29;;;;;;;3.33;2.40;;;;;;;15.76;100.00;100711.56;1687982;84;21105;-92
2021/08/09 01:30:56;;;;;;;2.33;2.00;;;;;;;15.74;100.00;100702.22;1677720;84;21061;-88
2021/08/09 01:33:24;;;;;;;4.37;2.52;;;;;;;15.73;100.00;100700.60;1701726;82;21069;-89
2021/08/09 01:35:52;;;;;;;3.37;2.30;;;;;;;15.71;100.00;100691.02;1700858;84;21086;-93
2021/08/09 01:38:19;;;;;;;4.80;2.02;;;;;;;15.69;100.00;100694.87;1700902;84;21049;-88
2021/08/09 01:40:46;;;;;;;6.40;2.10;;;;;;;15.68;100.00;100694.60;1683253;82;21070;-89
2021/08/09 01:43:13;;;;;;;3.58;2.15;;;;;;;15.66;100.00;100690.53;1730950;82;21034;-90
2021/08/09 01:45:41;;;;;;;3.87;3.00;;;;;;;15.63;100.00;100688.39;1720026;82;21537;-90
2021/08/09 01:48:09;;;;;;;2.50;2.08;;;;;;;15.64;100.00;100692.77;1700783;84;21073;-88
2021/08/09 01:50:39;;;;;;;3.85;2.30;;;;;;;15.64;100.00;100696.33;1701481;82;21571;-91
2021/08/09 01:53:08;;;;;;;6.47;2.52;;;;;;;15.61;100.00;100692.82;1683831;84;20963;-92
2021/08/09 01:55:36;;;;;;;5.60;2.15;;;;;;;15.57;100.00;100695.11;1700860;84;21034;-88
2021/08/09 01:58:05;;;;;;;3.15;2.00;;;;;;;15.54;100.00;100691.61;1680411;84;21035;-89
2021/08/09 02:00:32;;;;;;;3.62;2.80;;;;;;;15.51;100.00;100688.09;1697753;84;21050;-88
2021/08/09 02:02:59;;;;;;;3.95;2.30;;;;;;;15.47;100.00;100694.19;1701441;84;21090;-92
2021/08/09 02:05:26;;;;;;;3.67;2.30;;;;;;;15.43;100.00;100693.19;1701340;84;21038;-88
2021/08/09 02:07:55;;;;;;;3.67;2.10;;;;;;;15.42;100.00;100698.99;1678651;84;21058;-89
2021/08/09 02:10:24;;;;;;;4.22;2.00;;;;;;;15.38;100.00;100708.44;1672851;85;21050;-91
2021/08/09 02:13:17;;;;;;;5.80;2.62;;;;;;;15.36;100.00;100698.28;1673924;85;21030;-89
2021/08/09 02:16:27;;;;;;;3.08;2.10;;;;;;;15.33;100.00;100709.92;1672979;85;21045;-91
2021/08/09 02:19:02;;;;;;;2.50;2.00;;;;;;;15.31;100.00;100710.78;1678450;84;21054;-91
2021/08/09 02:21:45;;;;;;;2.25;2.05;;;;;;;15.30;100.00;100709.13;1681488;82;21552;-91
2021/08/09 02:24:16;;;;;;;4.72;1.98;;;;;;;15.30;100.00;100706.94;1693235;84;21059;-90
2021/08/09 02:26:50;;;;;;;2.95;2.00;;;;;;;15.29;100.00;100708.89;1699564;84;21434;-89
2021/08/09 02:29:27;;;;;;;2.47;2.27;;;;;;;15.29;100.00;100710.83;1682203;84;21121;-94
2021/08/09 02:31:55;;;;;;;5.70;1.92;;;;;;;15.29;100.00;100707.51;1675078;85;21079;-89
2021/08/09 02:34:24;;;;;;;3.27;1.80;;;;;;;15.30;100.00;100710.50;1675137;85;21059;-90
2021/08/09 02:36:51;;;;;;;4.22;2.20;;;;;;;15.31;100.00;100710.78;1675035;85;21129;-90
2021/08/09 02:39:18;;;;;;;4.58;2.00;;;;;;;15.31;100.00;100705.27;1679657;84;21106;-90
2021/08/09 02:41:45;;;;;;;4.00;2.27;;;;;;;15.31;100.00;100701.71;1704280;84;21045;-90
2021/08/09 02:44:12;;;;;;;3.37;2.80;;;;;;;15.32;100.00;100695.88;1703821;84;21101;-92
2021/08/09 02:46:40;;;;;;;4.25;2.15;;;;;;;15.36;100.00;100690.59;1692204;82;21608;-92
2021/08/09 02:49:09;;;;;;;2.95;2.15;;;;;;;15.38;100.00;100697.97;1653686;85;21373;-90
2021/08/09 02:51:37;;;;;;;3.27;2.37;;;;;;;15.39;100.00;100697.67;1635238;86;21079;-90
2021/08/09 02:54:04;;;;;;;3.05;2.35;;;;;;;15.40;100.00;100693.78;1648160;84;21540;-94
2021/08/09 02:56:32;;;;;;;3.33;2.22;;;;;;;15.42;100.00;100694.86;1695271;84;21069;-89
2021/08/09 02:59:00;;;;;;;4.80;2.25;;;;;;;15.39;100.00;100696.29;1662765;84;21055;-90
2021/08/09 03:01:27;;;;;;;2.65;2.10;;;;;;;15.41;100.00;100696.00;1607566;87;21574;-94
2021/08/09 03:03:58;;;;;;;5.03;2.22;;;;;;;15.44;100.00;100706.39;1663149;85;22097;-93
2021/08/09 03:06:26;;;;;;;2.60;2.00;;;;;;;15.49;100.00;100708.48;1662302;86;21102;-90
2021/08/09 03:08:53;;;;;;;2.00;1.80;;;;;;;15.59;100.00;100702.52;1630892;84;21146;-90
2021/08/09 03:11:20;;;;;;;3.35;1.90;;;;;;;15.65;100.00;100706.78;1671246;84;21047;-93
2021/08/09 03:13:49;;;;;;;3.27;1.77;;;;;;;15.72;100.00;100714.11;1663340;86;21074;-90
2021/08/09 03:16:18;;;;;;;2.30;1.82;;;;;;;15.84;100.00;100710.27;1633302;86;21505;-92
2021/08/09 03:18:44;;;;;;;2.55;1.87;;;;;;;15.94;100.00;100720.83;1660215;84;21117;-90
2021/08/09 03:21:11;;;;;;;2.27;1.62;;;;;;;16.01;100.00;100722.60;1658402;86;20890;-89
2021/08/09 03:23:38;;;;;;;2.98;2.00;;;;;;;16.05;100.00;100710.66;1660739;85;21058;-90
2021/08/09 03:26:05;;;;;;;2.67;1.80;;;;;;;16.11;100.00;100712.72;1657880;86;21144;-92
2021/08/09 03:28:32;;;;;;;3.00;2.05;;;;;;;16.17;100.00;100718.39;1657518;86;21585;-90
2021/08/09 03:31:00;;;;;;;3.37;2.15;;;;;;;16.24;100.00;100709.09;1631274;84;21151;-93
2021/08/09 03:33:26;;;;;;;6.17;2.00;;;;;;;16.34;100.00;100707.51;1682363;83;21058;-91
2021/08/09 03:35:53;;;;;;;3.75;1.90;;;;;;;16.47;100.00;100702.25;1696715;84;21037;-90
2021/08/09 03:38:20;;;;;;;2.17;1.65;;;;;;;16.60;100.00;100701.37;1690879;84;21050;-92
2021/08/09 03:41:04;;;;;;;2.58;1.77;;;;;;;16.72;100.00;100698.86;1695900;84;21146;-91
2021/08/09 03:43:31;;;;;;;4.92;2.58;;;;;;;16.80;100.00;100699.26;1709962;84;21084;-90
2021/08/09 03:45:58;;;;;;;3.72;2.62;;;;;;;16.85;100.00;100690.84;1695894;83;21034;-94
2021/08/09 03:48:25;;;;;;;4.00;2.08;;;;;;;16.89;100.00;100690.44;1709329;83;21064;-90
2021/08/09 03:50:51;;;;;;;3.72;2.08;;;;;;;16.98;100.00;100692.70;1677649;84;21050;-93
2021/08/09 03:53:18;;;;;;;3.72;2.00;;;;;;;17.07;100.00;100691.37;1714687;82;21067;-92
2021/08/09 03:55:44;;;;;;;3.15;2.08;;;;;;;17.16;100.00;100692.20;1747150;82;21028;-90
2021/08/09 03:58:11;;;;;;;2.55;1.90;;;;;;;17.28;100.00;100688.28;1747320;82;21055;-90
2021/08/09 04:00:38;;;;;;;3.30;2.10;;;;;;;17.41;100.00;100689.33;1747875;82;20901;-93
2021/08/09 04:03:05;;;;;;;2.75;1.42;;;;;;;17.54;100.00;100682.86;1744496;82;21072;-90
2021/08/09 04:05:33;;;;;;;2.92;1.37;;;;;;;17.70;100.00;100693.46;1736694;82;21098;-91
2021/08/09 04:08:00;;;;;;;2.70;1.77;;;;;;;17.88;100.00;100693.80;1700295;83;21045;-92
2021/08/09 04:10:27;;;;;;;1.95;1.37;;;;;;;18.09;100.00;100694.55;1701676;83;21084;-93
2021/08/09 04:12:53;;;;;;;1.17;1.10;;;;;;;18.28;100.00;100692.27;1720212;83;21022;-91
2021/08/09 04:15:22;;;;;;;1.20;1.07;;;;;;;18.46;100.00;100693.88;1741970;82;21073;-91
2021/08/09 04:17:51;;;;;;;2.35;1.45;;;;;;;18.64;100.00;100693.86;1701037;83;21018;-92
2021/08/09 04:20:18;;;;;;;1.27;1.10;;;;;;;18.79;100.00;100700.33;1667107;83;21088;-91
2021/08/09 04:22:47;;;;;;;1.50;1.27;;;;;;;18.94;100.00;100699.53;1694442;83;20913;-90
2021/08/09 04:25:13;;;;;;;2.05;1.62;;;;;;;19.06;100.00;100693.55;1696163;83;21096;-93
2021/08/09 04:27:40;;;;;;;2.25;1.67;;;;;;;19.18;100.00;100693.44;1687316;83;21065;-93
2021/08/09 04:30:07;;;;;;;3.10;1.75;;;;;;;19.30;100.00;100708.22;1695471;83;21065;-94
2021/08/09 04:32:40;;;;;;;2.10;1.30;;;;;;;19.43;100.00;100711.91;1696699;82;21373;-95
2021/08/09 04:35:10;;;;;;;3.70;1.77;;;;;;;19.54;100.00;100710.40;1703809;83;21070;-89
2021/08/09 04:37:37;;;;;;;1.80;1.40;;;;;;;19.66;100.00;100706.92;1679796;84;21084;-90
2021/08/09 04:40:07;;;;;;;4.35;1.32;;;;;;;19.79;100.00;100707.05;1704597;82;21574;-89
2021/08/09 04:42:37;;;;;;;2.47;1.50;;;;;;;19.88;100.00;100698.91;1736452;82;21069;-89
2021/08/09 04:45:06;;;;;;;2.25;1.72;;;;;;;20.03;100.00;100700.83;1731438;82;21969;-89
2021/08/09 04:47:34;;;;;;;1.70;1.32;;;;;;;20.14;100.00;100706.23;1737643;82;21053;-89
2021/08/09 04:50:01;;;;;;;1.82;1.30;;;;;;;20.26;100.00;100697.98;1706686;82;21565;-90
2021/08/09 04:52:29;;;;;;;2.05;1.70;;;;;;;20.35;100.00;100700.11;1702762;84;21058;-90
2021/08/09 04:54:56;;;;;;;1.95;1.20;;;;;;;20.44;100.00;100695.86;1703130;84;21050;-89
2021/08/09 04:57:22;;;;;;;3.65;1.70;;;;;;;20.59;100.00;100698.61;1703156;84;21030;-95
2021/08/09 04:59:49;;;;;;;3.80;1.82;;;;;;;20.71;100.00;100706.18;1704720;84;21090;-95
2021/08/09 05:02:16;;;;;;;1.70;1.40;;;;;;;20.82;100.00;100707.36;1703180;84;21091;-95
2021/08/09 05:04:43;;;;;;;1.72;1.20;;;;;;;20.93;100.00;100715.50;1704650;82;21514;-95
2021/08/09 05:07:10;;;;;;;3.42;1.95;;;;;;;21.01;100.00;100725.70;1703691;83;22139;-95
2021/08/09 05:09:38;;;;;;;4.20;1.82;;;;;;;21.15;100.00;100723.20;1704207;84;21567;-96
2021/08/09 05:12:06;;;;;;;3.80;1.55;;;;;;;21.29;100.00;100720.92;1701692;84;21144;-91
2021/08/09 05:14:34;;;;;;;1.90;1.20;;;;;;;21.41;100.00;100720.97;1707730;82;21018;-91
2021/08/09 05:17:05;;;;;;;1.60;1.40;;;;;;;21.54;100.00;100720.94;1679976;84;21050;-92
2021/08/09 05:19:32;;;;;;;2.37;1.72;;;;;;;21.66;100.00;100720.95;1735893;82;21033;-90
2021/08/09 05:22:01;;;;;;;1.42;1.25;;;;;;;21.75;99.46;100711.91;1732264;81;21175;-91
2021/08/09 05:24:53;;;;;;;1.67;1.30;;;;;;;21.85;99.99;100711.43;1706092;82;21601;-94
2021/08/09 05:27:20;;;;;;;;;;;;;;;21.98;99.13;100711.41;1700173;84;21086;-93
2021/08/09 05:29:46;;;;;;;2.25;1.60;;;;;;;22.14;98.37;100716.50;1695714;83;20256;-91
2021/08/09 05:32:13;;;;;;;2.22;1.52;;;;;;;22.24;97.70;100710.47;1700538;84;21958;-93
2021/08/09 05:34:42;;;;;;;1.42;1.30;;;;;;;22.35;97.37;100714.14;1710572;83;21089;-91
2021/08/09 05:37:08;;;;;;;2.37;1.60;;;;;;;22.46;97.73;100726.41;1694002;82;21049;-93
2021/08/09 05:39:37;;;;;;;3.08;1.52;;;;;;;22.54;96.43;100724.05;1708628;83;21042;-93
2021/08/09 05:42:04;;;;;;;3.30;1.55;;;;;;;22.65;95.70;100719.61;1701289;83;21117;-90
2021/08/09 05:44:31;;;;;;;2.17;1.87;;;;;;;22.72;94.49;100719.82;1698872;82;21098;-90
2021/08/09 05:46:58;;;;;;;1.52;1.42;;;;;;;22.80;93.95;100718.59;1677175;85;21042;-90
2021/08/09 05:49:25;;;;;;;2.75;1.98;;;;;;;22.87;93.30;100716.01;1683631;82;21144;-89
2021/08/09 05:51:53;;;;;;;2.55;1.47;;;;;;;22.98;93.16;100717.15;1688991;83;21077;-92
2021/08/09 05:54:20;;;;;;;3.37;1.40;;;;;;;23.10;93.24;100718.47;1683840;82;21488;-91
2021/08/09 05:56:49;;;;;;;2.33;1.67;;;;;;;23.24;92.53;100717.21;1707592;83;22098;-92
2021/08/09 05:59:16;;;;;;;1.90;1.62;;;;;;;23.34;92.29;100711.09;1704343;82;21145;-89
2021/08/09 06:01:44;;;;;;;2.08;1.77;;;;;;;23.43;93.04;100715.91;1707402;83;21089;-92
2021/08/09 06:04:12;;;;;;;3.08;1.70;;;;;;;23.55;92.95;100708.05;1704975;82;21050;-89
2021/08/09 06:06:42;;;;;;;2.47;1.87;;;;;;;23.70;91.80;100705.02;1704932;84;21034;-91
2021/08/09 06:09:10;;;;;;;2.27;1.62;;;;;;;23.83;91.81;100703.75;1706462;82;20986;-89
2021/08/09 06:11:40;;;;;;;2.77;1.60;;;;;;;23.98;91.97;100704.28;1705573;84;21033;-89
2021/08/09 06:14:06;;;;;;;2.17;1.50;;;;;;;24.15;91.18;100705.86;1700402;84;21030;-89
2021/08/09 06:16:33;;;;;;;4.22;1.62;;;;;;;24.30;90.53;100712.56;1706272;83;21046;-90
2021/08/09 06:19:00;;;;;;;1.50;1.40;;;;;;;24.43;88.95;100710.42;1706236;84;22337;-90
2021/08/09 06:21:28;;;;;;;2.77;2.10;;;;;;;24.56;88.12;100715.33;1706442;84;21042;-90
2021/08/09 06:23:55;;;;;;;3.62;1.82;;;;;;;24.67;87.79;100713.55;1684413;84;21093;-90
2021/08/09 06:26:23;;;;;;;2.00;1.62;;;;;;;24.77;87.43;100707.34;1677661;84;21118;-89
2021/08/09 06:28:51;;;;;;;2.60;1.92;;;;;;;24.87;87.41;100704.55;1658321;85;21026;-89
2021/08/09 06:31:17;;;;;;;3.90;1.80;;;;;;;24.95;87.91;100702.13;1677728;84;21204;-89
2021/08/09 06:33:45;;;;;;;3.50;2.30;;;;;;;25.05;86.75;100697.91;1679579;84;21049;-88
2021/08/09 06:36:13;;;;;;;1.85;1.67;;;;;;;25.15;86.88;100695.05;1673561;84;21106;-90
2021/08/09 06:38:42;;;;;;;2.80;1.82;;;;;;;25.21;86.26;100694.41;1674189;85;21644;-90
2021/08/09 06:41:08;;;;;;;2.00;1.40;;;;;;;25.27;86.47;100688.73;1673593;84;21046;-89
2021/08/09 06:43:38;;;;;;;2.58;1.92;;;;;;;25.43;86.57;100693.38;1679755;84;21058;-89
2021/08/09 06:46:07;;;;;;;2.12;1.65;;;;;;;25.56;85.21;100693.38;1672970;85;21141;-88
2021/08/09 06:48:34;;;;;;;3.05;1.90;;;;;;;25.68;86.14;100697.97;1673415;85;21053;-89
2021/08/09 06:51:01;;;;;;;2.42;1.80;;;;;;;25.85;85.04;100693.83;1674096;85;21061;-90
2021/08/09 06:53:27;;;;;;;2.02;1.82;;;;;;;26.03;84.73;100695.50;1679419;84;21118;-88
2021/08/09 06:55:55;;;;;;;2.40;1.70;;;;;;;26.17;83.84;100692.30;1673417;85;21290;-89
2021/08/09 06:58:23;;;;;;;2.62;1.85;;;;;;;26.26;83.17;100696.80;1673507;85;21090;-87
2021/08/09 07:00:50;;;;;;;1.92;1.65;;;;;;;26.32;82.08;100703.09;1654015;85;21097;-88
2021/08/09 07:03:17;;;;;;;1.65;1.47;;;;;;;26.38;81.85;100706.35;1688942;84;21038;-87
2021/08/09 07:05:46;;;;;;;1.15;1.07;;;;;;;26.51;82.37;100706.33;1701766;84;21027;-89
2021/08/09 07:08:14;;;;;;;3.00;1.55;;;;;;;26.75;82.01;100702.81;1701805;84;21038;-88
2021/08/09 07:10:42;;;;;;;2.65;2.00;;;;;;;26.94;80.32;100708.23;1701722;84;21063;-90
2021/08/09 07:13:09;;;;;;;1.87;1.62;;;;;;;27.06;79.19;100699.34;1697719;84;21042;-89
2021/08/09 07:15:37;;;;;;;2.12;1.72;;;;;;;27.21;79.08;100701.91;1673471;85;21069;-89
2021/08/09 07:18:04;;;;;;;2.05;1.67;;;;;;;27.33;77.40;100698.02;1653709;85;21074;-90
2021/08/09 07:20:32;;;;;;;1.47;1.35;;;;;;;27.31;77.72;100689.17;1673454;85;21105;-88
2021/08/09 07:23:00;;;;;;;2.75;1.72;;;;;;;27.42;78.39;100693.45;1681727;84;21489;-87
2021/08/09 07:25:28;;;;;;;1.80;1.45;;;;;;;27.61;77.96;100703.63;1674026;85;21053;-90
2021/08/09 07:27:55;;;;;;;2.30;1.65;;;;;;;27.79;76.17;100707.36;1673696;85;21078;-89
2021/08/09 07:30:22;;;;;;;2.75;1.60;;;;;;;27.87;74.58;100691.42;1673787;84;21556;-89
2021/08/09 07:32:51;;;;;;;2.10;1.40;;;;;;;27.96;75.19;100681.23;1679761;84;21047;-90
2021/08/09 07:35:19;;;;;;;2.08;1.65;;;;;;;28.06;73.88;100683.28;1692877;83;21070;-88
2021/08/09 07:37:46;;;;;;;3.15;2.15;;;;;;;28.16;73.53;100679.72;1692848;83;21034;-88
2021/08/09 07:40:13;;;;;;;1.85;1.60;;;;;;;28.22;72.55;100679.56;1693204;83;21049;-88
2021/08/09 07:42:40;;;;;;;1.75;1.50;;;;;;;28.24;72.32;100684.77;1694620;83;21647;-88
2021/08/09 07:45:08;;;;;;;1.42;1.32;;;;;;;28.25;73.17;100682.98;1660709;85;21082;-89
2021/08/09 07:47:36;;;;;;;1.80;1.70;;;;;;;28.33;74.00;100688.63;1658558;85;21053;-89
2021/08/09 07:50:04;;;;;;;1.42;1.32;;;;;;;28.49;74.26;100689.94;1678147;85;21581;-89
2021/08/09 07:52:31;;;;;;;2.40;1.87;;;;;;;28.62;72.89;100683.34;1678910;84;21026;-87
2021/08/09 07:59:16;;;;;;;1.82;1.60;;;;;;;28.76;72.16;100683.16;1815142;77;27820;-87
2021/08/09 08:01:44;;;;;;;1.25;1.10;;;;;;;28.82;74.27;100685.80;1781823;78;21547;-88
2021/08/09 08:04:10;;;;;;;1.40;1.30;;;;;;;29.09;72.60;100687.07;1803628;78;20977;-88
2021/08/09 08:06:38;;;;;;;2.40;1.75;;;;;;;29.24;69.97;100692.71;1791953;80;21008;-89
2021/08/09 08:09:06;;;;;;;3.35;1.62;;;;;;;29.34;70.58;100696.12;1792562;80;21021;-89
2021/08/09 08:11:33;;;;;;;1.67;1.57;;;;;;;29.35;69.23;100696.31;1792165;80;21467;-87
2021/08/09 08:14:00;;;;;;;2.70;2.12;;;;;;;29.43;68.53;100683.88;1756176;78;21064;-88
2021/08/09 08:16:27;;;;;;;1.70;1.57;;;;;;;29.61;67.52;100684.45;1824527;78;21029;-90
2021/08/09 08:18:55;;;;;;;1.95;1.45;;;;;;;29.54;67.92;100683.84;1825457;78;21004;-89
2021/08/09 08:21:22;;;;;;;2.02;1.60;;;;;;;29.41;70.04;100682.05;1824691;78;21021;-88
2021/08/09 08:23:49;;;;;;;1.57;1.45;;;;;;;29.41;69.74;100675.62;1816842;78;21052;-87
2021/08/09 08:26:16;;;;;;;2.10;1.75;;;;;;;29.40;69.24;100673.39;1824596;78;20981;-90
2021/08/09 08:28:42;;;;;;;1.75;1.60;;;;;;;29.57;70.07;100674.01;1795387;78;21032;-88
2021/08/09 08:31:09;;;;;;;1.50;1.40;;;;;;;29.81;67.99;100678.61;1824544;78;20997;-89
2021/08/09 08:33:36;;;;;;;1.95;1.65;;;;;;;29.96;67.02;100673.73;1817176;78;21487;-88
2021/08/09 08:36:04;;;;;;;1.47;1.37;;;;;;;30.10;67.28;100677.92;1794460;78;21119;-89
2021/08/09 08:38:33;;;;;;;2.22;2.00;;;;;;;30.03;65.78;100677.94;1795296;78;21516;-87
2021/08/09 08:41:00;;;;;;;2.70;1.55;;;;;;;29.93;66.45;100673.95;1824485;78;21060;-88
2021/08/09 08:43:27;;;;;;;2.50;1.77;;;;;;;30.05;68.21;100674.73;1817776;78;21134;-87
2021/08/09 08:45:57;;;;;;;1.92;1.82;;;;;;;30.23;68.23;100679.68;1757473;81;21095;-88
2021/08/09 08:48:24;;;;;;;3.05;1.60;;;;;;;30.34;66.29;100678.25;1714234;82;21045;-89
2021/08/09 08:50:51;;;;;;;2.30;1.45;;;;;;;30.45;64.19;100683.85;1739035;82;22283;-88
2021/08/09 08:53:19;;;;;;;3.52;1.92;;;;;;;30.51;63.63;100680.78;1740501;81;21092;-88
2021/08/09 08:55:46;;;;;;;1.65;1.55;;;;;;;30.46;63.40;100687.66;1738802;82;21552;-90
2021/08/09 08:58:12;;;;;;;3.30;1.75;;;;;;;30.40;64.46;100691.52;1739134;81;21021;-88
2021/08/09 09:00:40;;;;;;;2.12;1.92;;;;;;;30.34;64.84;100690.93;1739557;82;21029;-89
2021/08/09 09:03:24;;;;;;;2.22;1.60;;;;;;;30.18;66.47;100682.31;1738845;82;21090;-88
2021/08/09 09:05:59;;;;;;;2.80;1.87;;;;;;;30.23;65.58;100675.45;1766439;81;20998;-87
2021/08/09 09:08:48;;;;;;;2.35;2.08;;;;;;;30.38;66.54;100672.79;1769450;80;21084;-88
2021/08/09 09:11:30;;;;;;;4.72;1.95;;;;;;;30.54;65.64;100670.09;1769552;80;21073;-90
2021/08/09 09:14:02;;;;;;;4.00;2.30;;;;;;;30.69;65.33;100664.59;1744118;81;21022;-90
2021/08/09 09:16:45;;;;;;;1.70;1.50;;;;;;;30.80;66.84;100672.35;1750893;80;21472;-89
2021/08/09 09:19:47;;;;;;;2.47;2.05;;;;;;;30.70;64.35;100659.12;1777470;80;21515;-87
2021/08/09 09:22:20;;;;;;;2.25;2.05;;;;;;;30.55;65.55;100656.20;1773326;80;21018;-89
2021/08/09 09:24:51;;;;;;;3.22;2.08;;;;;;;30.54;64.83;100663.04;1766070;81;21081;-89
2021/08/09 09:27:32;;;;;;;4.47;2.50;;;;;;;30.38;64.76;100667.16;1741674;81;21014;-90
2021/08/09 09:29:59;;;;;;;3.33;1.92;;;;;;;30.19;66.14;100669.02;1741901;82;21108;-89
2021/08/09 09:32:25;;;;;;;3.60;2.25;;;;;;;30.07;66.61;100664.66;1741334;81;21124;-90
2021/08/09 09:34:55;;;;;;;3.45;2.10;;;;;;;30.17;66.61;100664.42;1741042;82;21041;-90
2021/08/09 09:37:29;;;;;;;3.65;1.90;;;;;;;30.23;66.17;100662.77;1722395;82;21049;-88
2021/08/09 09:40:09;;;;;;;2.60;2.00;;;;;;;30.19;66.92;100666.20;1757550;81;21076;-88
2021/08/09 09:42:40;;;;;;;3.72;2.30;;;;;;;30.35;66.00;100654.50;1736187;81;21008;-90
2021/08/09 09:45:24;;;;;;;2.67;2.47;;;;;;;30.51;65.71;100655.41;1730347;81;21541;-88
2021/08/09 09:48:09;;;;;;;2.75;2.20;;;;;;;30.58;66.93;100659.61;1729940;82;21540;-89
2021/08/09 09:50:41;;;;;;;2.30;2.02;;;;;;;30.74;64.06;100660.53;1736557;81;21045;-88
2021/08/09 09:53:20;;;;;;;2.95;1.80;;;;;;;30.77;63.97;100659.08;1724962;81;21053;-91
2021/08/09 10:04:40;;;;;;;3.15;1.90;;;;;;;30.84;64.52;100649.20;1848493;77;22588;-88
2021/08/09 10:07:08;;;;;;;3.25;2.20;;;;;;;30.94;63.95;100650.95;1803161;78;21072;-88
2021/08/09 10:09:36;;;;;;;2.80;2.12;;;;;;;31.03;63.17;100665.37;1787568;80;21516;-88
2021/08/09 10:12:05;;;;;;;3.62;2.22;;;;;;;31.04;63.20;100664.17;1763777;80;21013;-90
2021/08/09 10:14:33;;;;;;;4.97;2.40;;;;;;;31.10;61.88;100679.42;1771635;80;21048;-89
2021/08/09 10:16:59;;;;;;;2.90;2.12;;;;;;;31.09;61.58;100675.02;1772570;78;21037;-88
2021/08/09 10:19:27;;;;;;;3.77;2.15;;;;;;;31.03;61.74;100664.78;1761326;80;21040;-87
2021/08/09 10:21:54;;;;;;;2.60;1.77;;;;;;;31.08;62.44;100662.10;1770649;80;21464;-88
2021/08/09 10:24:42;;;;;;;3.62;2.42;;;;;;;31.17;63.36;100666.67;1769815;80;21009;-88
2021/08/09 10:27:09;;;;;;;1.85;1.50;;;;;;;31.28;63.22;100660.34;1776882;80;21444;-89
2021/08/09 10:30:04;;;;;;;2.05;1.52;;;;;;;31.35;60.86;100664.30;1762500;80;21068;-89
2021/08/09 10:32:53;;;;;;;2.70;2.10;;;;;;;31.38;61.16;100660.64;1762658;80;21024;-90
2021/08/09 10:35:40;;;;;;;4.90;2.02;;;;;;;31.45;61.20;100669.08;1781429;80;21104;-90
2021/08/09 10:38:25;;;;;;;2.35;1.80;;;;;;;31.48;61.53;100676.12;1770363;78;21088;-91
2021/08/09 10:41:12;;;;;;;2.65;1.77;;;;;;;31.58;60.66;100677.83;1777963;80;21081;-89
2021/08/09 10:44:08;;;;;;;1.98;1.60;;;;;;;31.69;61.08;100677.92;1773009;80;21012;-89
2021/08/09 10:46:43;;;;;;;5.00;2.77;;;;;;;31.79;60.10;100680.44;1751576;80;21025;-89
2021/08/09 10:49:31;;;;;;;4.37;1.55;;;;;;;31.88;60.38;100679.96;1772851;79;21020;-90
2021/08/09 10:52:03;;;;;;;1.77;1.50;;;;;;;31.99;60.12;100683.48;1760953;80;22124;-89
2021/08/09 10:54:36;;;;;;;3.05;2.00;;;;;;;32.12;59.64;100685.97;1769751;80;21053;-89
2021/08/09 10:57:04;;;;;;;3.05;1.90;;;;;;;32.19;57.08;100687.09;1774340;80;21068;-90
2021/08/09 10:59:46;;;;;;;2.40;1.60;;;;;;;32.14;56.01;100689.15;1778880;80;21009;-92
2021/08/09 11:02:35;;;;;;;2.60;1.80;;;;;;;32.07;56.06;100685.02;1777975;78;21128;-93
2021/08/09 11:05:21;;;;;;;3.12;2.52;;;;;;;32.03;56.53;100682.05;1752877;80;21342;-89
2021/08/09 11:07:48;;;;;;;2.75;1.90;;;;;;;32.02;56.83;100684.05;1778700;80;21056;-93
2021/08/09 11:10:54;;;;;;;3.08;1.80;;;;;;;32.13;56.71;100681.91;1747009;81;21040;-92
2021/08/09 11:13:23;;;;;;;2.83;1.98;;;;;;;32.19;56.10;100684.27;1763036;80;21032;-89
2021/08/09 11:16:00;;;;;;;2.50;2.02;;;;;;;32.15;55.66;100674.42;1765288;80;20978;-92
2021/08/09 11:18:28;;;;;;;2.85;1.80;;;;;;;32.04;55.55;100663.23;1773886;80;21120;-92
2021/08/09 11:21:11;;;;;;;2.37;1.72;;;;;;;31.92;55.44;100669.39;1762960;80;21073;-89
2021/08/09 11:23:45;;;;;;;3.27;1.77;;;;;;;31.86;55.29;100666.86;1782697;80;20966;-90
2021/08/09 11:26:26;;;;;;;2.35;1.65;;;;;;;31.89;55.81;100671.05;1764433;80;21009;-89
2021/08/09 11:29:06;;;;;;;1.62;1.25;;;;;;;31.94;52.90;100678.29;1765745;80;21327;-89
2021/08/09 11:31:47;;;;;;;1.98;1.50;;;;;;;32.03;51.76;100664.47;1760768;80;21397;-89
2021/08/09 11:34:14;;;;;;;1.93;1.40;;;;;;;32.14;51.92;100662.91;1759762;81;21076;-89
2021/08/09 11:36:43;;;;;;;2.55;1.87;;;;;;;32.32;51.82;100666.92;1760327;80;21041;-89
2021/08/09 11:39:09;;;;;;;4.22;1.75;;;;;;;32.42;51.64;100673.66;1768810;80;21097;-90
2021/08/09 11:41:37;;;;;;;2.12;1.25;;;;;;;32.52;50.84;100660.84;1787677;80;21575;-90
2021/08/09 11:44:07;;;;;;;2.17;1.37;;;;;;;32.70;50.87;100659.16;1777913;78;21048;-91
2021/08/09 11:46:49;;;;;;;1.15;1.05;;;;;;;32.89;48.98;100650.59;1776230;80;21018;-89
2021/08/09 11:49:16;;;;;;;1.30;1.20;;;;;;;33.01;46.83;100652.00;1776000;80;21057;-90